Time;durP1;ratioP1;P1;durP2;ratioP2;P2;SDS_P1;SDS_P2;PMS_P1;PMS_P2;Temp;Humidity;BMP_temperature;BMP_pressure;BME280_temperature;BME280_humidity;BME280_pressure;Samples;Min_cycle;Max_cycle;Signal;HPM_P1;HPM_P2
2021/11/13 00:04:55;;;;;;;118.40;47.48;;;;;;;4.67;95.22;99347.84;4053828;86;21550;-83
2021/11/13 00:10:56;;;;;;;118.65;47.20;;;;;;;4.75;95.21;99352.42;4039959;87;21093;-82
2021/11/13 00:16:58;;;;;;;110.90;45.25;;;;;;;4.72;95.15;99353.89;4025729;86;21681;-82
2021/11/13 00:23:00;;;;;;;114.08;46.00;;;;;;;4.71;95.19;99350.92;4016610;87;21033;-83
2021/11/13 00:29:01;;;;;;;109.87;46.13;;;;;;;4.71;95.12;99341.43;4006777;87;21677;-82
2021/11/13 00:35:05;;;;;;;122.28;48.52;;;;;;;4.70;95.15;99331.72;4002222;87;21093;-81
2021/11/13 00:41:06;;;;;;;120.67;47.62;;;;;;;4.71;95.24;99334.65;3996680;88;21373;-82
2021/11/13 00:47:08;;;;;;;125.80;46.63;;;;;;;4.70;95.11;99328.20;4008132;87;20990;-82
2021/11/13 00:53:09;;;;;;;121.37;48.80;;;;;;;4.66;95.20;99321.30;4005661;87;21785;-82
2021/11/13 00:59:10;;;;;;;114.97;45.67;;;;;;;4.65;95.21;99326.47;4007821;87;21098;-82
2021/11/13 01:05:11;;;;;;;123.40;48.08;;;;;;;4.62;95.24;99327.69;4013182;87;21085;-82
2021/11/13 01:11:14;;;;;;;123.92;47.45;;;;;;;4.61;95.26;99317.97;4004253;88;21042;-83
2021/11/13 01:17:16;;;;;;;120.45;48.45;;;;;;;4.59;95.29;99319.66;4007740;88;21057;-82
2021/11/13 01:23:20;;;;;;;105.30;44.65;;;;;;;4.58;95.26;99307.78;3988641;88;21179;-83
2021/11/13 01:29:21;;;;;;;116.22;46.95;;;;;;;4.51;95.21;99306.94;4009462;87;21085;-82
2021/11/13 01:35:24;;;;;;;118.67;49.08;;;;;;;4.48;95.35;99293.23;4010406;88;21067;-82
2021/11/13 01:41:26;;;;;;;129.15;51.15;;;;;;;4.45;95.43;99285.76;4008942;88;21593;-82
2021/11/13 01:47:27;;;;;;;108.22;44.00;;;;;;;4.41;95.54;99278.86;4005694;87;21581;-80
2021/11/13 01:53:29;;;;;;;118.28;46.70;;;;;;;4.37;95.70;99283.34;3988756;88;21090;-81
2021/11/13 01:59:30;;;;;;;118.95;45.67;;;;;;;4.32;95.69;99278.09;3992165;88;21536;-81
2021/11/13 02:05:33;;;;;;;121.62;46.68;;;;;;;4.32;95.73;99278.09;3990738;87;21059;-81
2021/11/13 02:11:34;;;;;;;121.60;47.53;;;;;;;4.34;95.82;99269.09;3999166;88;21077;-81
2021/11/13 02:17:36;;;;;;;123.55;48.52;;;;;;;4.39;95.96;99270.26;4024227;87;21064;-81
2021/11/13 02:23:39;;;;;;;109.27;42.95;;;;;;;4.39;95.87;99268.91;4046787;87;21008;-82
2021/11/13 02:29:41;;;;;;;122.87;47.95;;;;;;;4.37;95.64;99264.36;3969041;87;21084;-81
2021/11/13 02:35:44;;;;;;;114.97;46.10;;;;;;;4.35;95.80;99259.05;3914098;90;21076;-82
2021/11/13 02:41:47;;;;;;;127.12;48.30;;;;;;;4.32;95.80;99246.16;3915283;88;21116;-82
2021/11/13 02:47:50;;;;;;;114.50;44.88;;;;;;;4.34;95.96;99243.34;3908285;90;21072;-81
2021/11/13 02:53:52;;;;;;;117.47;45.52;;;;;;;4.37;95.95;99233.78;3914367;90;21085;-82
2021/11/13 02:59:54;;;;;;;103.17;42.40;;;;;;;4.36;95.92;99230.27;3893928;89;21083;-82
2021/11/13 03:05:58;;;;;;;97.70;40.73;;;;;;;4.30;95.86;99224.00;3927689;90;21088;-81
2021/11/13 03:12:00;;;;;;;112.37;43.45;;;;;;;4.14;95.89;99222.97;3924627;88;21116;-82
2021/11/13 03:18:01;;;;;;;118.02;44.60;;;;;;;4.10;96.05;99213.34;3915254;89;21671;-81
2021/11/13 03:24:03;;;;;;;114.05;42.80;;;;;;;4.06;96.30;99215.67;3908194;89;21550;-82
2021/11/13 03:30:08;;;;;;;105.70;43.17;;;;;;;3.93;96.54;99214.00;3903896;90;21639;-81
2021/11/13 03:36:09;;;;;;;111.35;43.60;;;;;;;3.92;96.49;99215.91;3900211;89;21546;-81
2021/11/13 03:42:10;;;;;;;127.17;48.23;;;;;;;3.93;96.60;99215.36;3891473;89;21058;-81
2021/11/13 03:48:12;;;;;;;119.17;45.95;;;;;;;3.95;96.71;99216.61;3917374;88;21045;-81
2021/11/13 03:54:13;;;;;;;123.78;45.05;;;;;;;3.99;96.82;99207.28;3922155;90;21537;-81
2021/11/13 04:00:15;;;;;;;137.88;47.60;;;;;;;4.04;96.81;99207.09;3912000;90;21049;-81
2021/11/13 04:06:18;;;;;;;114.45;45.58;;;;;;;4.05;96.69;99209.48;3906291;90;21099;-82
2021/11/13 04:12:19;;;;;;;114.62;45.50;;;;;;;4.07;96.62;99203.73;3903880;90;21114;-81
2021/11/13 04:18:20;;;;;;;119.75;45.28;;;;;;;4.05;96.65;99203.27;3897407;89;21077;-82
2021/11/13 04:24:23;;;;;;;124.90;46.25;;;;;;;4.05;96.79;99193.23;3921162;88;21529;-81
2021/11/13 04:30:24;;;;;;;117.00;44.88;;;;;;;4.08;96.81;99195.83;3963489;88;21074;-81
2021/11/13 04:36:29;;;;;;;126.67;45.60;;;;;;;4.08;96.92;99197.19;3968301;88;21054;-81
2021/11/13 04:42:29;;;;;;;118.35;45.48;;;;;;;4.09;96.84;99195.50;3978918;88;38322;-81
2021/11/13 04:48:30;;;;;;;127.07;47.55;;;;;;;4.05;96.81;99188.36;3984664;86;21000;-81
2021/11/13 04:54:32;;;;;;;134.95;49.27;;;;;;;4.04;96.94;99195.68;3990423;88;21064;-81
2021/11/13 05:00:35;;;;;;;133.32;48.33;;;;;;;4.03;97.14;99193.30;3990192;88;21100;-82
2021/11/13 05:06:36;;;;;;;123.80;45.15;;;;;;;4.06;97.15;99197.52;3973280;88;20987;-81
2021/11/13 05:12:38;;;;;;;116.25;42.98;;;;;;;4.09;96.96;99200.12;3987323;88;21005;-82
2021/11/13 05:18:39;;;;;;;122.47;43.80;;;;;;;4.08;96.89;99202.05;3976111;87;21063;-82
2021/11/13 05:24:41;;;;;;;119.42;42.60;;;;;;;4.01;96.67;99200.41;4005635;87;21043;-81
2021/11/13 05:30:42;;;;;;;115.55;44.05;;;;;;;3.95;96.91;99196.30;3997094;87;21087;-82
2021/11/13 05:36:45;;;;;;;112.92;43.17;;;;;;;3.98;97.08;99190.22;4001793;87;21096;-83
2021/11/13 05:42:49;;;;;;;121.97;43.50;;;;;;;4.00;97.10;99192.61;4006212;87;21551;-80
2021/11/13 05:48:50;;;;;;;107.50;40.67;;;;;;;4.02;97.25;99197.95;4001085;87;21016;-81
2021/11/13 05:54:52;;;;;;;118.17;43.10;;;;;;;4.06;97.31;99189.94;4003620;87;21095;-81
2021/11/13 06:00:53;;;;;;;115.65;42.73;;;;;;;4.11;97.26;99197.33;4008373;87;21083;-80
2021/11/13 06:06:54;;;;;;;118.35;42.83;;;;;;;4.05;96.97;99199.20;4005823;87;21569;-81
2021/11/13 06:12:55;;;;;;;112.47;38.83;;;;;;;4.01;96.98;99203.11;3999401;87;21023;-81
2021/11/13 06:18:57;;;;;;;115.25;41.35;;;;;;;3.96;96.99;99212.77;3996667;87;21036;-80
2021/11/13 06:24:58;;;;;;;120.42;41.75;;;;;;;3.87;97.01;99211.25;4001475;87;21044;-83
2021/11/13 06:31:00;;;;;;;107.63;39.35;;;;;;;3.89;97.26;99219.82;4003117;87;21536;-81
2021/11/13 06:37:01;;;;;;;109.63;41.40;;;;;;;3.88;97.07;99232.59;3998974;87;21536;-81
2021/11/13 06:43:03;;;;;;;120.75;40.70;;;;;;;3.86;97.18;99240.78;4000701;87;21551;-82
2021/11/13 06:49:06;;;;;;;100.60;38.48;;;;;;;3.87;97.08;99242.39;4116090;85;21040;-81
2021/11/13 06:55:09;;;;;;;101.72;36.70;;;;;;;3.90;97.48;99247.16;4107076;85;21591;-80
2021/11/13 07:01:10;;;;;;;110.40;38.92;;;;;;;3.91;97.16;99241.41;4042949;86;21058;-81
2021/11/13 07:07:11;;;;;;;108.60;40.17;;;;;;;3.88;97.25;99246.13;4048553;86;21705;-81
2021/11/13 07:13:12;;;;;;;108.80;38.35;;;;;;;3.91;97.48;99255.51;4050065;86;21522;-81
2021/11/13 07:19:14;;;;;;;100.58;36.85;;;;;;;3.90;97.13;99249.87;4043030;86;21133;-82
2021/11/13 07:25:16;;;;;;;106.67;36.98;;;;;;;3.86;97.20;99244.84;4018740;87;21031;-81
2021/11/13 07:31:18;;;;;;;104.40;36.73;;;;;;;3.87;97.39;99245.10;4016117;87;21729;-81
2021/11/13 07:37:19;;;;;;;95.87;35.10;;;;;;;3.89;97.49;99249.06;4000113;87;21555;-82
2021/11/13 07:43:21;;;;;;;98.97;36.35;;;;;;;3.90;97.48;99250.64;4012531;87;21523;-82
2021/11/13 07:49:22;;;;;;;98.40;36.42;;;;;;;3.92;97.55;99249.77;4018885;87;21071;-82
2021/11/13 07:55:23;;;;;;;89.95;32.50;;;;;;;3.90;97.31;99238.45;4020073;87;21048;-81
2021/11/13 08:01:25;;;;;;;87.42;33.58;;;;;;;3.92;97.41;99241.64;4021712;87;21101;-81
2021/11/13 08:07:26;;;;;;;97.05;36.23;;;;;;;3.95;97.33;99229.34;4015931;87;21137;-81
2021/11/13 08:13:28;;;;;;;96.12;35.48;;;;;;;3.93;97.37;99231.03;4020853;87;21003;-81
2021/11/13 08:19:29;;;;;;;105.15;37.70;;;;;;;3.97;97.51;99234.69;4017673;87;21059;-81
2021/11/13 08:25:32;;;;;;;100.38;37.20;;;;;;;3.91;97.77;99233.29;4019542;87;21078;-81
2021/11/13 08:31:33;;;;;;;93.37;35.43;;;;;;;3.98;97.77;99234.11;4020848;87;21070;-82
2021/11/13 08:37:35;;;;;;;91.28;32.50;;;;;;;4.04;97.66;99234.19;4017907;87;21130;-81
2021/11/13 08:43:36;;;;;;;97.40;35.88;;;;;;;4.04;97.59;99247.16;4020314;87;21524;-82
2021/11/13 08:49:40;;;;;;;97.55;35.23;;;;;;;4.13;97.59;99236.29;4017877;87;21227;-81
2021/11/13 08:55:44;;;;;;;91.45;33.73;;;;;;;4.18;97.60;99243.66;4007766;87;21106;-81
2021/11/13 09:01:46;;;;;;;94.37;33.75;;;;;;;4.20;97.55;99231.14;4020578;87;21113;-81
2021/11/13 09:07:48;;;;;;;95.12;33.65;;;;;;;4.13;97.52;99245.22;4016413;87;21118;-82
2021/11/13 09:13:53;;;;;;;91.45;32.55;;;;;;;4.15;97.45;99242.19;4020497;87;21893;-81
2021/11/13 09:19:56;;;;;;;101.35;35.92;;;;;;;4.20;97.54;99236.00;4026578;86;21165;-82
2021/11/13 09:25:57;;;;;;;88.62;30.48;;;;;;;4.31;97.58;99229.09;4046801;86;21579;-81
2021/11/13 09:31:58;;;;;;;103.27;37.28;;;;;;;4.37;97.95;99232.42;4050292;86;21632;-80
2021/11/13 09:38:00;;;;;;;87.75;33.50;;;;;;;4.13;97.77;99226.26;4048933;86;21082;-81
2021/11/13 09:44:02;;;;;;;92.40;35.30;;;;;;;4.15;97.90;99232.12;4048812;86;21043;-82
2021/11/13 09:50:06;;;;;;;93.30;35.33;;;;;;;4.25;97.88;99241.80;4048748;86;20996;-81
2021/11/13 09:56:10;;;;;;;102.80;35.83;;;;;;;4.30;97.61;99230.22;4048222;86;21106;-82
2021/11/13 10:02:11;;;;;;;86.05;32.00;;;;;;;4.33;97.67;99224.14;4046207;86;21408;-81
2021/11/13 10:08:13;;;;;;;91.90;33.90;;;;;;;4.37;97.67;99221.58;4046437;86;21094;-82
2021/11/13 10:14:15;;;;;;;87.42;35.03;;;;;;;4.36;97.44;99208.58;4050256;86;21028;-81
2021/11/13 10:20:22;;;;;;;92.45;34.27;;;;;;;4.45;97.47;99201.17;4039533;86;21079;-82
2021/11/13 10:26:30;;;;;;;;;;;;;;;4.52;97.35;99195.23;4025596;87;21052;-83
2021/11/13 10:32:31;;;;;;;99.25;36.08;;;;;;;4.52;97.18;99178.41;4020671;87;20326;-81
2021/11/13 10:38:34;;;;;;;90.83;36.33;;;;;;;4.52;97.10;99181.12;4019768;87;21019;-82
2021/11/13 10:44:40;;;;;;;87.02;33.88;;;;;;;4.51;97.13;99170.61;4016038;87;21023;-83
2021/11/13 10:50:42;;;;;;;93.55;35.85;;;;;;;4.48;97.08;99177.47;4020764;87;21325;-82
2021/11/13 10:56:48;;;;;;;92.12;35.88;;;;;;;4.57;97.03;99176.06;4015895;87;22384;-82
2021/11/13 11:03:04;;;;;;;;;;;;;;;4.54;96.85;99165.88;4023273;87;21127;-82
2021/11/13 11:09:25;;;;;;;93.12;37.20;;;;;;;4.52;96.78;99155.37;4016671;87;20147;-81
2021/11/13 11:15:32;;;;;;;94.32;36.50;;;;;;;4.51;96.84;99152.41;4018496;87;21126;-82
2021/11/13 11:21:58;;;;;;;94.52;36.28;;;;;;;4.51;96.90;99153.00;4033928;86;21578;-82
2021/11/13 11:27:59;;;;;;;90.85;35.58;;;;;;;4.49;96.82;99140.33;4045603;86;21072;-81
2021/11/13 11:34:00;;;;;;;101.40;37.20;;;;;;;4.44;96.74;99144.58;4048897;86;21567;-82
2021/11/13 11:40:11;;;;;;;98.47;35.28;;;;;;;4.40;96.75;99144.45;4053187;86;21103;-82
2021/11/13 11:46:13;;;;;;;97.55;39.60;;;;;;;4.42;96.84;99145.47;4048587;86;21508;-81
2021/11/13 11:52:18;;;;;;;95.03;39.38;;;;;;;4.51;96.91;99128.02;4052289;86;20991;-81
2021/11/13 11:58:21;;;;;;;89.52;37.55;;;;;;;4.59;96.74;99129.86;4048273;86;21095;-82
2021/11/13 12:04:25;;;;;;;89.75;34.98;;;;;;;4.61;96.66;99122.75;4052288;86;20972;-82
2021/11/13 12:10:31;;;;;;;85.90;35.70;;;;;;;4.69;96.50;99121.88;4043665;86;21105;-82
2021/11/13 12:16:32;;;;;;;116.15;43.98;;;;;;;4.77;96.45;99124.53;4047073;86;20963;-82
2021/11/13 12:22:38;;;;;;;115.17;44.42;;;;;;;4.67;96.20;99122.77;4018113;86;20995;-81
2021/11/13 12:28:52;;;;;;;119.85;44.48;;;;;;;4.50;96.26;99121.57;4003357;87;21037;-82
2021/11/13 12:34:54;;;;;;;109.30;42.78;;;;;;;4.46;96.32;99113.88;4020563;87;20998;-81
2021/11/13 12:41:30;;;;;;;103.12;41.58;;;;;;;4.48;96.33;99119.74;4021286;87;21009;-81
2021/11/13 12:47:36;;;;;;;117.53;41.77;;;;;;;4.59;96.33;99119.02;4021466;87;21091;-82
2021/11/13 12:53:53;;;;;;;;;;;;;;;4.50;96.01;99102.59;4022449;87;21123;-81
2021/11/13 13:00:12;;;;;;;117.20;45.25;;;;;;;4.55;95.96;99086.13;4028428;88;20190;-81
2021/11/13 13:06:13;;;;;;;132.37;48.28;;;;;;;4.57;96.08;99088.72;4014719;87;21036;-81
2021/11/13 13:12:18;;;;;;;122.70;48.68;;;;;;;4.59;95.97;99090.55;4018054;87;21065;-81
2021/11/13 13:18:19;;;;;;;135.60;48.60;;;;;;;4.54;95.68;99083.20;4021462;87;21039;-81
2021/11/13 13:24:21;;;;;;;122.20;46.53;;;;;;;4.45;95.83;99081.11;4024365;87;21083;-81
2021/11/13 13:30:22;;;;;;;134.00;49.20;;;;;;;4.26;95.82;99078.87;4021476;87;21546;-81
2021/11/13 13:36:26;;;;;;;119.57;45.25;;;;;;;4.20;95.91;99073.98;4023948;87;21018;-81
2021/11/13 13:42:34;;;;;;;128.62;46.13;;;;;;;4.19;95.84;99075.12;4022442;87;21071;-81
2021/11/13 13:48:41;;;;;;;125.92;44.95;;;;;;;4.09;95.67;99084.98;4022765;87;21083;-80
2021/11/13 13:54:44;;;;;;;134.57;45.63;;;;;;;4.10;95.98;99087.36;4021615;87;21152;-80
2021/11/13 14:00:49;;;;;;;123.00;45.40;;;;;;;4.09;96.14;99088.49;4013579;87;21027;-81
2021/11/13 14:06:51;;;;;;;130.93;48.92;;;;;;;4.14;95.98;99092.37;4023619;87;21466;-81
2021/11/13 14:12:55;;;;;;;128.07;49.08;;;;;;;4.11;95.92;99097.64;4019368;87;21124;-81
2021/11/13 14:19:10;;;;;;;135.60;47.95;;;;;;;3.97;96.11;99103.88;4020389;87;21047;-80
2021/11/13 14:25:11;;;;;;;148.28;50.90;;;;;;;3.87;96.19;99106.41;4048178;86;21072;-81
2021/11/13 14:31:23;;;;;;;137.92;49.77;;;;;;;3.91;96.30;99099.78;4052708;86;21084;-81
2021/11/13 14:37:29;;;;;;;138.52;48.08;;;;;;;3.92;96.33;99106.22;4049748;86;21007;-81
2021/11/13 14:43:33;;;;;;;;;;;;;;;3.98;96.15;99112.22;4050771;86;21472;-81
2021/11/13 14:49:36;;;;;;;135.95;48.75;;;;;;;4.02;96.50;99107.75;4049993;86;20145;-82
2021/11/13 14:55:39;;;;;;;141.50;49.93;;;;;;;4.09;96.39;99105.30;4049054;86;21011;-81
2021/11/13 15:01:48;;;;;;;139.25;50.08;;;;;;;4.14;96.34;99105.11;4047062;86;21011;-81
2021/11/13 15:07:49;;;;;;;126.55;47.40;;;;;;;4.18;96.28;99103.34;4040001;86;20988;-81
2021/11/13 15:13:54;;;;;;;123.18;45.20;;;;;;;4.16;96.12;99101.52;4040110;86;21007;-81
2021/11/13 15:20:03;;;;;;;131.43;46.10;;;;;;;4.14;96.17;99105.91;4048461;86;21078;-82
2021/11/13 15:26:05;;;;;;;134.00;46.75;;;;;;;4.12;96.11;99110.86;4017948;87;21106;-81
2021/11/13 15:32:07;;;;;;;121.33;45.63;;;;;;;4.10;96.19;99129.93;4023637;87;21055;-81
2021/11/13 15:38:21;;;;;;;121.05;44.08;;;;;;;4.12;96.05;99131.17;4017131;87;21035;-82
2021/11/13 15:44:24;;;;;;;121.72;45.60;;;;;;;4.13;96.00;99144.17;4024422;87;21027;-82
2021/11/13 15:50:25;;;;;;;129.00;47.65;;;;;;;4.15;95.95;99151.42;3948455;87;21526;-82
2021/11/13 15:56:38;;;;;;;120.97;45.33;;;;;;;4.14;95.93;99149.27;3878690;90;21081;-82
2021/11/13 16:02:40;;;;;;;117.50;43.83;;;;;;;4.10;95.72;99151.02;3882812;90;21489;-82
2021/11/13 16:08:41;;;;;;;119.00;44.77;;;;;;;4.04;95.95;99162.41;3882789;90;21041;-82
2021/11/13 16:14:42;;;;;;;113.03;41.83;;;;;;;4.06;96.02;99163.66;3942074;89;21143;-82
2021/11/13 16:20:43;;;;;;;123.47;43.95;;;;;;;4.05;95.95;99170.75;3940670;89;21253;-82
2021/11/13 16:26:45;;;;;;;112.47;44.00;;;;;;;4.01;95.83;99176.61;4052194;86;21062;-82
2021/11/13 16:32:46;;;;;;;130.78;46.30;;;;;;;3.99;95.92;99182.91;4045620;86;21075;-82
2021/11/13 16:38:48;;;;;;;126.15;48.50;;;;;;;3.90;95.83;99171.33;4050051;86;21008;-82
2021/11/13 16:44:50;;;;;;;117.85;45.50;;;;;;;3.87;96.10;99178.75;4060677;86;21008;-82
2021/11/13 16:50:54;;;;;;;121.85;44.80;;;;;;;3.88;96.27;99186.55;4059007;86;21091;-82
2021/11/13 16:56:56;;;;;;;135.35;48.40;;;;;;;3.94;96.22;99181.72;4054641;86;21590;-82
2021/11/13 17:02:58;;;;;;;116.42;43.40;;;;;;;3.99;96.24;99188.31;4057528;86;20994;-82
2021/11/13 17:08:59;;;;;;;128.65;48.75;;;;;;;4.01;95.92;99182.80;4057714;86;21564;-82
2021/11/13 17:15:01;;;;;;;130.35;47.20;;;;;;;4.01;96.28;99195.56;4053683;86;21068;-83
2021/11/13 17:21:03;;;;;;;131.93;48.52;;;;;;;4.04;96.14;99204.39;4055743;86;21082;-83
2021/11/13 17:27:05;;;;;;;138.07;49.30;;;;;;;4.07;96.13;99205.09;4020113;87;21031;-82
2021/11/13 17:33:06;;;;;;;125.00;45.55;;;;;;;4.06;96.07;99200.77;4022585;87;21065;-82
2021/11/13 17:39:08;;;;;;;127.55;48.13;;;;;;;3.99;96.15;99199.16;4018806;87;21032;-82
2021/11/13 17:45:12;;;;;;;131.87;47.13;;;;;;;4.02;96.28;99203.91;4019461;87;21411;-82
2021/11/13 17:51:14;;;;;;;131.37;48.95;;;;;;;3.96;96.22;99199.23;4016516;87;20995;-82
2021/11/13 17:57:18;;;;;;;140.10;53.90;;;;;;;3.93;96.25;99205.88;4019982;87;20991;-80
2021/11/13 18:03:24;;;;;;;132.32;48.75;;;;;;;3.93;96.30;99203.17;4014072;87;20999;-82
2021/11/13 18:09:26;;;;;;;142.87;51.60;;;;;;;3.91;96.28;99210.27;4017629;87;20989;-81
2021/11/13 18:15:27;;;;;;;134.57;51.45;;;;;;;3.93;96.66;99206.66;4020128;87;21595;-82
2021/11/13 18:21:29;;;;;;;147.57;54.63;;;;;;;3.92;96.55;99198.30;4015210;87;21015;-81
2021/11/13 18:27:31;;;;;;;149.62;56.13;;;;;;;3.97;96.68;99195.42;3906446;86;10000282;-81
2021/11/13 18:33:32;;;;;;;157.18;55.12;;;;;;;3.98;96.71;99206.47;4021312;87;21055;-81
2021/11/13 18:39:33;;;;;;;139.25;54.70;;;;;;;4.01;96.82;99202.34;4007290;87;21071;-81
2021/11/13 18:45:37;;;;;;;149.53;55.38;;;;;;;4.01;96.70;99211.82;4018712;87;21019;-81
2021/11/13 18:51:40;;;;;;;155.52;56.08;;;;;;;3.98;96.69;99213.25;4022754;87;21921;-81
2021/11/13 18:57:41;;;;;;;167.77;61.15;;;;;;;4.05;97.00;99209.48;4018454;87;21102;-81
2021/11/13 19:03:43;;;;;;;160.50;62.08;;;;;;;4.09;96.96;99209.05;4014258;87;21015;-81
2021/11/13 19:09:44;;;;;;;148.15;56.75;;;;;;;4.12;96.86;99210.33;4019470;87;21007;-81
2021/11/13 19:15:46;;;;;;;159.90;62.13;;;;;;;4.13;96.84;99214.61;4013232;87;21027;-81
2021/11/13 19:21:47;;;;;;;160.85;60.30;;;;;;;4.12;96.82;99212.45;4024350;86;21066;-81
2021/11/13 19:27:49;;;;;;;154.57;59.13;;;;;;;4.13;96.85;99220.84;4054636;86;21000;-81
2021/11/13 19:33:52;;;;;;;148.82;57.70;;;;;;;4.14;96.78;99223.77;4052578;86;21067;-81
2021/11/13 19:39:53;;;;;;;144.00;58.02;;;;;;;4.12;96.61;99230.65;4057199;86;21821;-81
2021/11/13 19:45:56;;;;;;;136.15;55.38;;;;;;;4.11;96.61;99229.04;4053894;86;20980;-81
2021/11/13 19:51:58;;;;;;;131.20;54.58;;;;;;;4.07;96.57;99228.89;4059056;86;21465;-81
2021/11/13 19:58:00;;;;;;;148.28;57.90;;;;;;;4.05;96.52;99231.70;4054219;86;20976;-81
2021/11/13 20:04:02;;;;;;;131.65;57.00;;;;;;;4.02;96.39;99232.36;4052488;86;21507;-81
2021/11/13 20:10:07;;;;;;;141.70;58.50;;;;;;;3.97;96.36;99242.82;4055706;86;21908;-81
2021/11/13 20:16:08;;;;;;;138.92;59.03;;;;;;;3.95;96.37;99248.30;4055529;86;21022;-81
2021/11/13 20:22:09;;;;;;;139.20;56.28;;;;;;;3.95;96.56;99255.08;4049107;86;21589;-81
2021/11/13 20:28:11;;;;;;;127.22;57.83;;;;;;;3.96;96.52;99263.46;4021931;87;21974;-81
2021/11/13 20:34:15;;;;;;;131.90;57.15;;;;;;;3.94;96.45;99261.08;4016229;87;21055;-81
2021/11/13 20:40:25;;;;;;;128.23;54.98;;;;;;;3.92;96.26;99261.14;4017239;87;21539;-81
2021/11/13 20:46:22;;;;;;;144.43;58.92;;;;;;;3.85;96.21;99263.58;4019016;87;21011;-81
2021/11/13 20:52:26;;;;;;;134.72;56.42;;;;;;;3.74;96.02;99270.47;4022363;87;20996;-81
2021/11/13 20:58:28;;;;;;;141.45;56.75;;;;;;;3.65;96.15;99277.24;4022631;87;20984;-81
2021/11/13 21:04:31;;;;;;;147.72;59.93;;;;;;;3.62;96.49;99273.83;4020404;87;21035;-81
2021/11/13 21:10:34;;;;;;;146.02;58.40;;;;;;;3.62;96.55;99275.18;4021010;87;21035;-81
2021/11/13 21:16:35;;;;;;;143.78;58.65;;;;;;;3.59;96.47;99279.08;4023098;87;20990;-82
2021/11/13 21:22:37;;;;;;;158.20;63.75;;;;;;;3.52;96.31;99272.83;4026449;87;21512;-81
2021/11/13 21:28:38;;;;;;;178.10;75.65;;;;;;;3.41;96.87;99272.94;4048366;86;21059;-81
2021/11/13 21:34:39;;;;;;;174.97;73.87;;;;;;;3.48;97.26;99270.52;4049714;86;20980;-81
2021/11/13 21:40:43;;;;;;;192.22;79.42;;;;;;;3.59;97.34;99276.37;4046585;86;20987;-81
2021/11/13 21:46:44;;;;;;;162.55;75.05;;;;;;;3.65;97.23;99276.47;4051454;86;21014;-81
2021/11/13 21:52:46;;;;;;;158.05;67.22;;;;;;;3.69;97.16;99279.56;4052284;86;21020;-81
2021/11/13 21:58:48;;;;;;;157.03;65.37;;;;;;;3.69;96.92;99286.33;4046639;86;21003;-81
2021/11/13 22:04:49;;;;;;;145.77;64.80;;;;;;;3.62;97.10;99283.87;4050802;86;21059;-81
2021/11/13 22:10:52;;;;;;;133.30;62.20;;;;;;;3.72;97.35;99293.00;4049142;86;21540;-81
2021/11/13 22:16:59;;;;;;;146.62;63.85;;;;;;;3.78;97.16;99297.92;4050222;86;21051;-81
2021/11/13 22:22:57;;;;;;;132.47;59.27;;;;;;;3.81;97.06;99302.69;4051117;86;21091;-82
2021/11/13 22:28:59;;;;;;;117.55;54.38;;;;;;;3.83;97.07;99315.91;4053908;86;21076;-81
2021/11/13 22:35:00;;;;;;;115.32;54.35;;;;;;;3.83;96.87;99313.20;4051684;86;21551;-81
2021/11/13 22:41:03;;;;;;;120.37;54.60;;;;;;;3.87;96.96;99315.52;4051726;86;21448;-81
2021/11/13 22:47:04;;;;;;;100.97;49.42;;;;;;;3.85;96.62;99317.74;4049180;86;21027;-81
2021/11/13 22:53:07;;;;;;;127.47;54.58;;;;;;;3.74;96.30;99310.53;4052897;86;21050;-81
2021/11/13 22:59:08;;;;;;;129.72;56.18;;;;;;;3.60;96.19;99319.95;4053996;86;21448;-81
2021/11/13 23:05:09;;;;;;;104.20;47.65;;;;;;;3.53;96.37;99317.72;4052436;86;21147;-81
2021/11/13 23:11:11;;;;;;;113.60;51.30;;;;;;;3.41;96.16;99332.47;4049673;86;21023;-81
2021/11/13 23:17:14;;;;;;;129.38;57.00;;;;;;;3.20;96.37;99332.31;4049856;86;21059;-81
2021/11/13 23:23:18;;;;;;;152.72;61.75;;;;;;;3.27;97.02;99326.98;4048091;86;21043;-81
2021/11/13 23:29:21;;;;;;;145.43;61.95;;;;;;;3.41;97.04;99333.02;4050003;86;20972;-81
2021/11/13 23:35:23;;;;;;;145.35;64.72;;;;;;;3.46;96.99;99340.98;4047528;86;21091;-81
2021/11/13 23:41:25;;;;;;;132.15;58.08;;;;;;;3.51;96.90;99338.89;4048041;86;21046;-81
2021/11/13 23:47:26;;;;;;;138.95;58.17;;;;;;;3.51;96.59;99342.95;4049862;86;21024;-81
2021/11/13 23:53:28;;;;;;;140.18;60.63;;;;;;;3.42;96.65;99348.13;4052092;86;21476;-81
2021/11/13 23:59:29;;;;;;;142.25;61.20;;;;;;;3.40;96.76;99346.32;4052280;86;21094;-81
